Cebollita Spring, Valles Caldera, New Mexico Weather observations

Data are for 10 minute period ending at time listed.
 Day   Time   Solar   Ave.   Ave.  Ave.  Vector  Max.   Baro.   Total    
  of    of     Rad.   Air    Rel.  Wind   Wind   Wind  Press.  Precip.   
Year   Day            Temp.  Hum.  Speed  Dir.   Gust                    
2017   (MST)  Kw/m2    F      %     mph   deg.    mph    mb.     in.     
-------------------------------------------------------------------------
 200   11:30   0.61   76.7    37    5.0   192     9.6   99999.0    0.00 
 200   11:40   0.70   75.5    38    4.0   183     9.0   99999.0    0.00 
 200   11:50   0.57   75.9    37    5.4   155    11.3   99999.0    0.00 
 200   12:00   0.52   76.2    35    6.7   158    12.5   99999.0    0.00 
 200   12:10   0.82   76.2    38    5.2   152    11.3   99999.0    0.00 
 200   12:20   0.80   78.3    34    5.3   161    11.3   99999.0    0.00 
 200   12:30   0.61   78.4    33    3.8   139     9.0   99999.0    0.00 
 200   12:40   0.77   77.5    33    5.0   147    11.9   99999.0    0.00 
 200   12:50   0.62   77.5    33    4.6   207    11.9   99999.0    0.00 
 200   13:00   0.68   77.8    32    5.8   148    14.9   99999.0    0.00 
 200   13:10   0.70   78.7    30    5.4   178    13.7   99999.0    0.00 
 200   13:20   0.77   79.2    28    5.0   127    10.2   99999.0    0.00 
 200   13:30   0.58   79.6    28    5.8   176    13.1   99999.0    0.00 
 200   13:40   0.73   79.5    28    5.0   144    11.3   99999.0    0.00 
 200   13:50   0.71   80.7    25    5.8   162    11.3   99999.0    0.00 
 200   14:00   0.70   80.4    24    6.7   189    14.9   99999.0    0.00 
 200   14:10   0.68   80.9    24    6.0   176    14.3   99999.0    0.00 
 200   14:20   0.67   80.9    24    4.9   189    11.9   99999.0    0.00 
 200   14:30   0.66   80.7    24    5.0   173    10.2   99999.0    0.00 
 200   14:40   0.64   81.2    24    4.8   201     9.6   99999.0    0.00 
 200   14:50   0.62   80.7    24    6.2   165    11.9   99999.0    0.00 
 200   15:00   0.62   81.1    23    5.7   172    10.8   99999.0    0.00 
 200   15:10   0.60   80.5    24    6.6   196    11.9   99999.0    0.00 
 200   15:20   0.58   81.2    22    4.5   180    13.1   99999.0    0.00 
 200   15:30   0.56   82.2    20    6.0   154    12.5   99999.0    0.00 
 200   15:40   0.53   82.6    19    3.9   127     8.4   99999.0    0.00 
 200   15:50   0.51   83.1    20    4.6   140    13.7   99999.0    0.00 
 200   16:00   0.47   82.3    20    4.7   183    10.8   99999.0    0.00 
 200   16:10   0.47   82.1    20    4.6   191    10.2   99999.0    0.00 
 200   16:20   0.44   83.1    19    3.4   180     7.2   99999.0    0.00 
 200   16:30   0.38   82.3    18    4.2   101    10.2   99999.0    0.00 
 200   16:40   0.41   82.4    19    3.8   180    10.2   99999.0    0.00 
 200   16:50   0.38   82.9    21    4.3   129    11.3   99999.0    0.00 
 200   17:00   0.23   81.8    23    4.4   179    10.8   99999.0    0.00 
 200   17:10   0.15   78.6    26    5.1   141    10.2   99999.0    0.00 
 200   17:20   0.27   79.2    26    5.5   141    11.3   99999.0    0.00 
 200   17:30   0.22   79.1    27    3.9   125    11.3   99999.0    0.00 
 200   17:40   0.13   78.5    27    6.3   148    13.1   99999.0    0.00 
 200   17:50   0.11   77.6    29    5.0   143    14.9   99999.0    0.00 
 200   18:00   0.12   75.6    31    3.4   119     7.8   99999.0    0.00 
 200   18:10   0.13   75.8    30    3.9   153     8.4   99999.0    0.00 
 200   18:20   0.11   75.6    30    4.3   140    11.1   99999.0    0.00 
 200   18:30   0.08   75.2    30    3.6   156     8.4   99999.0    0.00 
 200   18:40   0.04   74.9    30    4.8   158     9.6   99999.0    0.00 
 200   18:50   0.02   74.2    30    3.9   153    10.8   99999.0    0.00 
 200   19:00   0.01   73.2    31    3.7   136     8.4   99999.0    0.00 
 200   19:10   0.01   72.4    31    3.7   139     8.4   99999.0    0.00 
 200   19:20   0.00   71.8    31    3.8   142     9.0   99999.0    0.00 
 200   19:30   0.00   71.5    31    4.5   139    10.8   99999.0    0.00 
 200   19:40   0.00   71.2    31    5.2   142    11.3   99999.0    0.00 
 200   19:50   0.00   70.8    30    5.0   137    12.5   99999.0    0.00 
 200   20:00   0.00   70.7    29    5.3   136    10.2   99999.0    0.00 
 200   20:10   0.00   70.5    29    4.8   134    11.3   99999.0    0.00 
 200   20:20   0.00   70.2    29    4.8   143    11.3   99999.0    0.00 
 200   20:30   0.00   69.7    29    4.7   143    11.3   99999.0    0.00 
 200   20:40   0.00   69.5    29    6.3   137    11.9   99999.0    0.00 
 200   20:50   0.00   69.2    30    4.6   132    11.3   99999.0    0.00 
 200   21:00   0.00   68.8    31    5.1   146    11.3   99999.0    0.00 
 200   21:10   0.00   68.3    32    4.8   128    11.3   99999.0    0.00 
 200   21:20   0.00   67.9    35    5.4   126    10.8   99999.0    0.00 
 200   21:30   0.00   67.6    38    6.0   132    13.7   99999.0    0.00 
 200   21:40   0.00   67.4    40    7.0   148    14.9   99999.0    0.00 
 200   21:50   0.00   65.9    47    4.5   156    10.2   99999.0    0.00 
 200   22:00   0.00   64.2    54    5.6   155    10.8   99999.0    0.00 
 200   22:10   0.00   63.1    57    5.6   156    12.5   99999.0    0.00 
 200   22:20   0.00   62.3    58    3.6   141    10.2   99999.0    0.00 
 200   22:30   0.00   61.6    60    4.2   144     9.0   99999.0    0.00 
 200   22:40   0.00   61.0    60    5.1   149    10.2   99999.0    0.00 
 200   22:50   0.00   60.4    60    3.1   154    10.2   99999.0    0.00 
 200   23:00   0.00   59.8    60    3.3   148     7.2   99999.0    0.00 
 200   23:10   0.00   59.1    61    3.2   125     9.6   99999.0    0.00 
 200   23:20   0.00   58.4    63    1.4   104     3.6   99999.0    0.00 
 200   23:30   0.00   57.2    66    1.8    95     3.6   99999.0    0.00 
 200   23:40   0.00   56.1    69    1.2    97     3.0   99999.0    0.00 
 200   23:50   0.00   55.0    73    2.0    77     3.0   99999.0    0.00 
 201    0:00   0.00   53.7    76    1.2    40     2.1   99999.0    0.00 
 201    0:10   0.00   52.6    79    0.4     8     1.8   99999.0    0.00 
 201    0:20   0.00   51.6    81    0.7    65     2.4   99999.0    0.00 
 201    0:30   0.00   50.9    84    2.3    68     3.6   99999.0    0.00 
 201    0:40   0.00   50.7    86    1.6    44     3.6   99999.0    0.00 
 201    0:50   0.00   50.7    86    2.1    71     3.6   99999.0    0.00 
 201    1:00   0.00   50.8    84    1.9    69     3.0   99999.0    0.00 
 201    1:10   0.00   50.8    85    0.5    56     1.8   99999.0    0.00 
 201    1:20   0.00   50.9    84    1.0    49     2.4   99999.0    0.00 
 201    1:30   0.00   50.9    83    1.9    76     4.2   99999.0    0.00 
 201    1:40   0.00   51.1    82    2.1    86     4.2   99999.0    0.00 
 201    1:50   0.00   52.2    79    1.3    88     3.0   99999.0    0.00 
 201    2:00   0.00   52.8    74    2.5    92     5.4   99999.0    0.00 
 201    2:10   0.00   53.1    71    2.5    92     5.4   99999.0    0.00 
 201    2:20   0.00   53.5    72    0.8   114     3.6   99999.0    0.00 
 201    2:30   0.00   52.8    75    1.8   130     3.6   99999.0    0.00 
 201    2:40   0.00   52.3    75    1.9   129     4.2   99999.0    0.00 
 201    2:50   0.00   51.7    77    2.5   125     4.2   99999.0    0.00 
 201    3:00   0.00   52.5    78    2.3   106     4.2   99999.0    0.00 
 201    3:10   0.00   52.2    79    1.9   121     3.9   99999.0    0.00 
 201    3:20   0.00   51.6    83    1.7    97     3.0   99999.0    0.00 
 201    3:30   0.00   51.6    83    1.8    74     2.4   99999.0    0.00 
 201    3:40   0.00   51.1    86    1.9    63     3.0   99999.0    0.00 
 201    3:50   0.00   50.9    90    0.6    12     2.4   99999.0    0.00 
 201    4:00   0.00   50.7    92    0.3   113     2.4   99999.0    0.00 
 201    4:10   0.00   50.4    91    1.4    72     3.0   99999.0    0.00 
 201    4:20   0.00   50.1    94    0.7    58     2.4   99999.0    0.00 
 201    4:30   0.00   49.9    95    1.7    67     3.6   99999.0    0.00 
 201    4:40   0.00   50.1    97    0.2    58     3.0   99999.0    0.00 
 201    4:50   0.00   49.9    97    0.0    56     1.2   99999.0    0.00 
 201    5:00   0.00   49.7    99    0.2   359     1.8   99999.0    0.00 
 201    5:10   0.01   49.3    98    2.2    56     4.2   99999.0    0.00 
 201    5:20   0.01   49.0    99    1.2    64     2.4   99999.0    0.00 
 201    5:30   0.01   48.9   100    0.0     6     1.2   99999.0    0.00 
 201    5:40   0.02   48.7   100    0.1    13     1.2   99999.0    0.00 
 201    5:50   0.04   48.9   100    0.4    55     2.4   99999.0    0.00 
 201    6:00   0.10   49.6   100    2.2    62     3.6   99999.0    0.00 
 201    6:10   0.13   51.0    99    2.2    34     4.8   99999.0    0.00 
 201    6:20   0.14   53.1    88    1.1    24     3.0   99999.0    0.00 
 201    6:30   0.14   56.4    76    2.1    80     4.8   99999.0    0.00 
 201    6:40   0.16   59.1    66    3.8    80     7.8   99999.0    0.00 
 201    6:50   0.16   60.1    63    1.4    65     4.8   99999.0    0.00 
 201    7:00   0.26   60.9    58    2.9    92     6.0   99999.0    0.00 
 201    7:10   0.11   61.3    56    4.3    97     7.8   99999.0    0.00 
 201    7:20   0.20   60.8    58    3.5    95     7.2   99999.0    0.00 
 201    7:30   0.12   61.2    57    2.7   136     5.4   99999.0    0.00 
 201    7:40   0.14   61.4    58    1.3   135     4.2   99999.0    0.00 
 201    7:50   0.18   61.7    57    3.4   130     6.6   99999.0    0.00 
 201    8:00   0.19   62.3    56    2.3   173     4.8   99999.0    0.00 
 201    8:10   0.18   62.0    55    3.0   168     6.0   99999.0    0.00 
 201    8:20   0.27   62.7    55    2.4   181     4.8   99999.0    0.00 
 201    8:30   0.36   64.3    52    3.1   134     6.0   99999.0    0.00 
 201    8:40   0.43   65.2    49    4.2   130     7.2   99999.0    0.00 
 201    8:50   0.47   66.7    46    2.9   136     6.0   99999.0    0.00 
 201    9:00   0.48   67.5    44    4.4   137     9.0   99999.0    0.00 
 201    9:10   0.58   68.4    42    3.8   130     9.0   99999.0    0.00 
 201    9:20   0.59   69.6    38    4.6   110     8.4   99999.0    0.00 
 201    9:30   0.61   70.2    39    3.8    86     7.8   99999.0    0.00 
 201    9:40   0.62   70.7    39    4.3    86    10.8   99999.0    0.00 
 201    9:50   0.64   71.4    39    5.2   110     9.6   99999.0    0.00 
 201   10:00   0.66   71.1    38    5.3   104    11.3   99999.0    0.00 
 201   10:10   0.67   70.9    39    5.7   113    11.9   99999.0    0.00 
 201   10:20   0.69   72.6    36    4.8   140    10.8   99999.0    0.00 
 201   10:30   0.70   72.5    34    5.0   175    11.3   99999.0    0.00 
 201   10:40   0.72   72.6    34    5.0   180    10.2   99999.0    0.00 
 201   10:50   0.73   72.8    34    5.3   167    13.1   99999.0    0.00 
 201   11:00   0.74   73.8    32    5.2   196    10.8   99999.0    0.00 
 201   11:10   0.74   74.7    31    4.5   150    11.9   99999.0    0.00 
 201   11:20   0.75   75.2    32    4.8   186     9.6   99999.0    0.00 

Return to Cebollita Spring, Valles Caldera graphs page.


Western Regional Climate Center,wrcc@dri.edu